createdAt,value
2019-05-12T00:00:25.019Z,0
2019-05-12T00:01:35.880Z,0
2019-05-12T00:02:48.424Z,0
2019-05-12T00:04:00.285Z,0
2019-05-12T00:05:11.272Z,0
2019-05-12T00:06:22.281Z,0
2019-05-12T00:07:33.428Z,0
2019-05-12T00:08:45.337Z,0
2019-05-12T00:09:58.180Z,0
2019-05-12T00:11:08.914Z,0
2019-05-12T00:12:20.908Z,0
2019-05-12T00:13:32.766Z,0
2019-05-12T00:14:42.710Z,0
2019-05-12T00:15:54.787Z,0
2019-05-12T00:17:05.309Z,0
2019-05-12T00:18:18.001Z,0
2019-05-12T00:19:28.480Z,0
2019-05-12T00:20:41.059Z,0
2019-05-12T00:21:52.916Z,0
2019-05-12T00:23:19.781Z,0
2019-05-12T00:24:35.218Z,0
2019-05-12T00:25:47.662Z,0
2019-05-12T00:26:58.023Z,0
2019-05-12T00:28:10.329Z,0
2019-05-12T00:29:20.999Z,0
2019-05-12T00:30:32.480Z,0
2019-05-12T00:31:43.106Z,0
2019-05-12T00:32:55.015Z,0
2019-05-12T00:34:07.631Z,0
2019-05-12T00:35:18.222Z,0
2019-05-12T00:36:29.208Z,0
2019-05-12T00:37:40.702Z,0
2019-05-12T00:38:50.954Z,0
2019-05-12T00:40:03.000Z,0
2019-05-12T00:41:13.625Z,0
2019-05-12T00:42:25.525Z,0
2019-05-12T00:43:38.205Z,0
2019-05-12T00:44:50.346Z,0
2019-05-12T00:46:01.179Z,0
2019-05-12T00:47:12.988Z,0
2019-05-12T00:48:24.911Z,0
2019-05-12T00:49:37.824Z,0
2019-05-12T00:50:48.684Z,0
2019-05-12T00:51:58.668Z,0
2019-05-12T00:53:11.218Z,0
2019-05-12T00:54:22.687Z,0
2019-05-12T00:55:33.774Z,0
2019-05-12T00:56:48.141Z,0
2019-05-12T00:58:00.461Z,0
2019-05-12T00:59:10.935Z,0
2019-05-12T01:00:22.725Z,0
2019-05-12T01:01:33.422Z,0
2019-05-12T01:02:45.263Z,0
2019-05-12T01:03:57.810Z,0
2019-05-12T01:05:08.539Z,0
2019-05-12T01:06:20.262Z,0
2019-05-12T01:07:32.524Z,0
2019-05-12T01:08:43.200Z,0
2019-05-12T01:09:53.935Z,0
2019-05-12T01:11:05.337Z,0
2019-05-12T01:12:18.088Z,0
2019-05-12T01:13:30.413Z,0
2019-05-12T01:14:40.821Z,0
2019-05-12T01:15:52.881Z,0
2019-05-12T01:17:04.949Z,0
2019-05-12T01:18:18.087Z,0
2019-05-12T01:19:28.900Z,0
2019-05-12T01:20:41.217Z,0
2019-05-12T01:21:52.991Z,0
2019-05-12T01:23:05.017Z,0
2019-05-12T01:24:18.511Z,0
2019-05-12T01:25:31.474Z,0
2019-05-12T01:26:43.495Z,0
2019-05-12T01:27:55.184Z,0
2019-05-12T01:29:08.386Z,0
2019-05-12T01:30:20.532Z,0
2019-05-12T01:31:31.017Z,0
2019-05-12T01:32:42.949Z,0
2019-05-12T01:33:53.409Z,0
2019-05-12T01:35:04.935Z,0
2019-05-12T01:36:18.105Z,0
2019-05-12T01:37:30.349Z,0
2019-05-12T01:38:42.670Z,0
2019-05-12T01:39:53.934Z,0
2019-05-12T01:41:05.630Z,0
2019-05-12T01:42:18.024Z,0
2019-05-12T01:43:32.319Z,0
2019-05-12T01:44:43.015Z,0
2019-05-12T01:45:55.450Z,0
2019-05-12T01:47:08.310Z,0
2019-05-12T01:48:20.622Z,0
2019-05-12T01:49:31.418Z,0
2019-05-12T01:50:43.445Z,0
2019-05-12T01:51:54.605Z,0
2019-05-12T01:53:08.123Z,0
2019-05-12T01:54:27.775Z,0
2019-05-12T01:55:38.757Z,0
2019-05-12T01:56:50.787Z,0
2019-05-12T01:58:02.317Z,0
2019-05-12T01:59:13.001Z,0
2019-05-12T02:00:27.862Z,0
2019-05-12T02:01:38.809Z,0
2019-05-12T02:02:50.508Z,0
2019-05-12T02:04:00.768Z,0
2019-05-12T02:05:13.144Z,0
2019-05-12T02:06:23.273Z,0
2019-05-12T02:07:35.181Z,0
2019-05-12T02:08:47.735Z,0
2019-05-12T02:09:58.412Z,0
2019-05-12T02:11:10.290Z,0
2019-05-12T02:12:20.700Z,0
2019-05-12T02:13:32.507Z,0
2019-05-12T02:14:43.051Z,0
2019-05-12T02:15:53.451Z,0
2019-05-12T02:17:05.113Z,0
2019-05-12T02:18:17.754Z,0
2019-05-12T02:19:28.218Z,0
2019-05-12T02:20:40.579Z,0
2019-05-12T02:21:51.186Z,0
2019-05-12T02:23:03.059Z,0
2019-05-12T02:24:32.465Z,0
2019-05-12T02:25:44.807Z,0
2019-05-12T02:26:57.760Z,0
2019-05-12T02:28:09.112Z,0
2019-05-12T02:29:20.495Z,0
2019-05-12T02:30:32.670Z,0
2019-05-12T02:31:44.730Z,0
2019-05-12T02:33:09.827Z,0
2019-05-12T02:34:25.300Z,0
2019-05-12T02:35:37.958Z,0
2019-05-12T02:36:49.756Z,0
2019-05-12T02:38:04.676Z,0
2019-05-12T02:39:17.557Z,0
2019-05-12T02:40:29.914Z,0
2019-05-12T02:41:44.694Z,0
2019-05-12T02:42:59.535Z,0
2019-05-12T02:44:14.883Z,0
2019-05-12T02:45:28.043Z,0
2019-05-12T02:46:44.520Z,0
2019-05-12T02:47:56.782Z,0
2019-05-12T02:49:09.070Z,0
2019-05-12T02:50:24.473Z,0
2019-05-12T02:51:37.667Z,0
2019-05-12T02:52:49.153Z,0
2019-05-12T02:54:01.789Z,0
2019-05-12T02:55:17.493Z,0
2019-05-12T02:56:30.636Z,0
2019-05-12T02:57:47.550Z,0
2019-05-12T02:58:59.173Z,0
2019-05-12T03:00:15.427Z,0
2019-05-12T03:01:28.986Z,0
2019-05-12T03:02:44.149Z,0
2019-05-12T03:03:57.317Z,0
2019-05-12T03:05:10.329Z,0
2019-05-12T03:06:25.118Z,0
2019-05-12T03:07:37.116Z,0
2019-05-12T03:08:49.741Z,0
2019-05-12T03:10:04.919Z,0
2019-05-12T03:11:17.298Z,0
2019-05-12T03:12:30.427Z,0
2019-05-12T03:13:44.571Z,0
2019-05-12T03:14:56.911Z,0
2019-05-12T03:16:09.811Z,0
2019-05-12T03:17:25.105Z,0
2019-05-12T03:18:37.108Z,0
2019-05-12T03:19:49.711Z,0
2019-05-12T03:21:05.115Z,0
2019-05-12T03:22:16.670Z,5
2019-05-12T03:23:34.875Z,5
2019-05-12T03:25:05.035Z,5
2019-05-12T03:26:17.887Z,5
2019-05-12T03:27:30.542Z,5
2019-05-12T03:28:44.536Z,5
2019-05-12T03:29:57.573Z,5
2019-05-12T03:31:18.196Z,5
2019-05-12T03:32:47.150Z,5
2019-05-12T03:34:22.193Z,10
2019-05-12T03:36:08.192Z,10
2019-05-12T03:37:35.292Z,10
2019-05-12T03:38:47.275Z,10
2019-05-12T03:39:59.391Z,10
2019-05-12T03:41:14.625Z,15
2019-05-12T03:42:27.622Z,15
2019-05-12T03:43:39.695Z,15
2019-05-12T03:44:51.292Z,15
2019-05-12T03:46:05.185Z,20
2019-05-12T03:47:16.976Z,20
2019-05-12T03:48:29.940Z,20
2019-05-12T03:49:45.112Z,20
2019-05-12T03:50:58.859Z,25
2019-05-12T03:52:14.920Z,25
2019-05-12T03:53:29.343Z,25
2019-05-12T03:54:44.862Z,30
2019-05-12T03:55:59.642Z,30
2019-05-12T03:57:14.609Z,35
2019-05-12T03:58:27.882Z,35
2019-05-12T03:59:39.707Z,40
2019-05-12T04:00:55.168Z,40
2019-05-12T04:02:07.280Z,45
2019-05-12T04:03:20.004Z,45
2019-05-12T04:04:34.079Z,50
2019-05-12T04:05:47.718Z,50
2019-05-12T04:06:59.182Z,55
2019-05-12T04:08:15.334Z,55
2019-05-12T04:09:27.082Z,60
2019-05-12T04:10:40.056Z,60
2019-05-12T04:11:51.106Z,60
2019-05-12T04:13:07.111Z,65
2019-05-12T04:14:19.676Z,65
2019-05-12T04:15:34.587Z,70
2019-05-12T04:16:47.752Z,70
2019-05-12T04:17:59.215Z,75
2019-05-12T04:19:14.596Z,75
2019-05-12T04:20:27.958Z,80
2019-05-12T04:21:40.017Z,80
2019-05-12T04:22:53.920Z,80
2019-05-12T04:24:07.598Z,85
2019-05-12T04:25:19.048Z,85
2019-05-12T04:26:35.644Z,90
2019-05-12T04:27:49.289Z,90
2019-05-12T04:29:04.959Z,90
2019-05-12T04:30:16.780Z,95
2019-05-12T04:31:29.599Z,95
2019-05-12T04:32:45.019Z,95
2019-05-12T04:33:57.182Z,100
2019-05-12T04:35:09.374Z,100
2019-05-12T04:36:24.477Z,100
2019-05-12T04:37:37.456Z,105
2019-05-12T04:38:49.908Z,105
2019-05-12T04:40:05.380Z,105
2019-05-12T04:41:25.441Z,110
2019-05-12T04:42:37.493Z,110
2019-05-12T04:43:49.701Z,115
2019-05-12T04:45:04.354Z,120
2019-05-12T04:46:16.988Z,125
2019-05-12T04:47:30.042Z,120
2019-05-12T04:48:45.232Z,130
2019-05-12T04:49:57.091Z,125
2019-05-12T04:51:09.717Z,130
2019-05-12T04:52:24.777Z,130
2019-05-12T04:53:37.693Z,135
2019-05-12T04:54:49.411Z,135
2019-05-12T04:56:29.642Z,135
2019-05-12T04:57:44.639Z,140
2019-05-12T04:58:57.088Z,140
2019-05-12T05:00:09.961Z,140
2019-05-12T05:01:25.278Z,140
2019-05-12T05:02:38.791Z,140
2019-05-12T05:03:53.772Z,140
2019-05-12T05:05:07.522Z,140
2019-05-12T05:06:19.784Z,135
2019-05-12T05:07:31.371Z,135
2019-05-12T05:08:46.734Z,135
2019-05-12T05:09:59.582Z,140
2019-05-12T05:11:11.318Z,140
2019-05-12T05:12:26.277Z,145
2019-05-12T05:13:44.328Z,150
2019-05-12T05:14:57.248Z,150
2019-05-12T05:16:09.864Z,155
2019-05-12T05:17:24.361Z,155
2019-05-12T05:18:36.807Z,160
2019-05-12T05:19:48.620Z,160
2019-05-12T05:20:58.766Z,165
2019-05-12T05:22:09.145Z,170
2019-05-12T05:23:21.203Z,175
2019-05-12T05:24:33.887Z,175
2019-05-12T05:25:45.949Z,180
2019-05-12T05:26:56.408Z,185
2019-05-12T05:28:08.570Z,185
2019-05-12T05:29:20.631Z,190
2019-05-12T05:30:33.711Z,190
2019-05-12T05:31:44.252Z,190
2019-05-12T05:32:55.750Z,190
2019-05-12T05:34:07.346Z,190
2019-05-12T05:35:18.567Z,195
2019-05-12T05:36:30.016Z,195
2019-05-12T05:37:49.091Z,195
2019-05-12T05:39:09.108Z,190
2019-05-12T05:40:30.888Z,190
2019-05-12T05:41:53.809Z,190
2019-05-12T05:43:20.928Z,185
2019-05-12T05:44:39.239Z,185
2019-05-12T05:45:54.248Z,185
2019-05-12T05:47:19.728Z,190
2019-05-12T05:48:35.146Z,190
2019-05-12T05:49:45.867Z,190
2019-05-12T05:50:59.852Z,195
2019-05-12T05:52:10.528Z,195
2019-05-12T05:53:29.109Z,200
2019-05-12T05:54:48.818Z,205
2019-05-12T05:56:06.540Z,210
2019-05-12T05:57:25.606Z,215
2019-05-12T05:58:46.792Z,225
2019-05-12T06:00:01.005Z,230
2019-05-12T06:01:18.416Z,235
2019-05-12T06:02:48.736Z,235
2019-05-12T06:04:08.985Z,245
2019-05-12T06:05:31.169Z,240
2019-05-12T06:06:58.165Z,250
2019-05-12T06:08:16.015Z,250
2019-05-12T06:09:30.198Z,255
2019-05-12T06:10:48.333Z,260
2019-05-12T06:12:04.988Z,260
2019-05-12T06:13:27.160Z,260
2019-05-12T06:14:46.550Z,260
2019-05-12T06:16:00.784Z,255
2019-05-12T06:17:11.512Z,255
2019-05-12T06:18:23.917Z,255
2019-05-12T06:19:36.704Z,260
2019-05-12T06:20:48.291Z,265
2019-05-12T06:22:00.518Z,270
2019-05-12T06:23:11.656Z,275
2019-05-12T06:24:28.719Z,275
2019-05-12T06:25:59.767Z,280
2019-05-12T06:27:26.811Z,275
2019-05-12T06:28:48.584Z,275
2019-05-12T06:30:14.716Z,280
2019-05-12T06:31:38.125Z,280
2019-05-12T06:32:59.203Z,280
2019-05-12T06:34:26.283Z,280
2019-05-12T06:35:47.666Z,275
2019-05-12T06:37:11.753Z,275
2019-05-12T06:38:23.674Z,275
2019-05-12T06:39:34.316Z,270
2019-05-12T06:40:54.419Z,265
2019-05-12T06:42:23.962Z,270
2019-05-12T06:43:47.861Z,270
2019-05-12T06:45:06.200Z,270
2019-05-12T06:46:28.320Z,270
2019-05-12T06:47:45.129Z,265
2019-05-12T06:49:09.821Z,255
2019-05-12T06:50:28.505Z,250
2019-05-12T06:51:40.797Z,245
2019-05-12T06:52:57.910Z,250
2019-05-12T06:54:19.946Z,255
2019-05-12T06:55:39.636Z,245
2019-05-12T06:57:20.632Z,250
2019-05-12T06:58:41.385Z,255
2019-05-12T07:00:04.497Z,255
2019-05-12T07:01:28.912Z,255
2019-05-12T07:02:57.804Z,260
2019-05-12T07:04:16.367Z,260
2019-05-12T07:05:33.608Z,265
2019-05-12T07:06:55.883Z,265
2019-05-12T07:08:08.917Z,265
2019-05-12T07:09:54.855Z,265
2019-05-12T07:11:14.242Z,260
2019-05-12T07:12:58.707Z,255
2019-05-12T07:14:29.876Z,260
2019-05-12T07:15:48.769Z,260
2019-05-12T07:17:14.501Z,260
2019-05-12T07:18:43.695Z,265
2019-05-12T07:20:03.854Z,255
2019-05-12T07:21:29.843Z,260
2019-05-12T07:22:54.775Z,265
2019-05-12T07:24:14.293Z,270
2019-05-12T07:25:36.577Z,265
2019-05-12T07:26:54.273Z,260
2019-05-12T07:28:18.777Z,260
2019-05-12T07:29:30.758Z,260
2019-05-12T07:30:46.448Z,260
2019-05-12T07:31:58.564Z,265
2019-05-12T07:33:14.309Z,260
2019-05-12T07:34:26.493Z,270
2019-05-12T07:35:38.738Z,265
2019-05-12T07:36:49.125Z,265
2019-05-12T07:38:01.154Z,260
2019-05-12T07:39:18.295Z,260
2019-05-12T07:40:44.295Z,255
2019-05-12T07:42:03.577Z,250
2019-05-12T07:43:26.737Z,250
2019-05-12T07:44:50.737Z,245
2019-05-12T07:46:15.833Z,250
2019-05-12T07:47:35.566Z,245
2019-05-12T07:48:58.943Z,240
2019-05-12T07:50:20.315Z,240
2019-05-12T07:51:44.611Z,240
2019-05-12T07:52:56.687Z,235
2019-05-12T07:54:11.107Z,235
2019-05-12T07:55:23.676Z,235
2019-05-12T07:56:46.669Z,235
2019-05-12T07:58:26.187Z,240
2019-05-12T07:59:48.627Z,240
2019-05-12T08:01:16.940Z,240
2019-05-12T08:02:40.529Z,245
2019-05-12T08:03:57.057Z,245
2019-05-12T08:05:23.980Z,250
2019-05-12T08:06:49.237Z,255
2019-05-12T08:08:11.651Z,255
2019-05-12T08:09:38.867Z,260
2019-05-12T08:10:55.925Z,260
2019-05-12T08:12:16.198Z,265
2019-05-12T08:13:37.425Z,265
2019-05-12T08:14:48.770Z,270
2019-05-12T08:16:03.657Z,275
2019-05-12T08:17:27.185Z,280
2019-05-12T08:18:49.321Z,280
2019-05-12T08:20:00.896Z,290
2019-05-12T08:21:13.949Z,290
2019-05-12T08:22:37.041Z,295
2019-05-12T08:23:49.337Z,305
2019-05-12T08:25:00.978Z,305
2019-05-12T08:26:26.432Z,300
2019-05-12T08:27:45.010Z,300
2019-05-12T08:28:58.404Z,310
2019-05-12T08:30:13.785Z,315
2019-05-12T08:31:44.027Z,325
2019-05-12T08:33:09.424Z,320
2019-05-12T08:34:20.370Z,325
2019-05-12T08:35:46.386Z,330
2019-05-12T08:37:06.565Z,340
2019-05-12T08:38:19.208Z,340
2019-05-12T08:39:33.685Z,355
2019-05-12T08:40:56.613Z,360
2019-05-12T08:42:08.819Z,360
2019-05-12T08:43:24.027Z,365
2019-05-12T08:44:48.283Z,370
2019-05-12T08:46:15.423Z,380
2019-05-12T08:47:28.859Z,380
2019-05-12T08:48:41.153Z,385
2019-05-12T08:50:07.303Z,410
2019-05-12T08:51:29.831Z,550
2019-05-12T08:52:48.879Z,540
2019-05-12T08:54:16.658Z,485
2019-05-12T08:55:40.695Z,460
2019-05-12T08:57:03.847Z,420
2019-05-12T08:58:45.997Z,450
2019-05-12T09:00:15.763Z,460
2019-05-12T09:01:38.753Z,465
2019-05-12T09:02:56.362Z,465
2019-05-12T09:04:24.685Z,465
2019-05-12T09:05:47.089Z,460
2019-05-12T09:07:06.850Z,470
2019-05-12T09:08:18.671Z,480
2019-05-12T09:09:30.446Z,470
2019-05-12T09:10:41.308Z,470
2019-05-12T09:11:54.168Z,475
2019-05-12T09:13:06.615Z,450
2019-05-12T09:14:19.316Z,440
2019-05-12T09:15:31.151Z,440
2019-05-12T09:16:43.957Z,440
2019-05-12T09:18:07.366Z,435
2019-05-12T09:19:33.169Z,420
2019-05-12T09:20:58.212Z,435
2019-05-12T09:22:26.554Z,435
2019-05-12T09:23:53.277Z,420
2019-05-12T09:25:14.427Z,430
2019-05-12T09:26:36.726Z,430
2019-05-12T09:27:56.720Z,425
2019-05-12T09:29:09.949Z,430
2019-05-12T09:30:21.165Z,430
2019-05-12T09:31:38.534Z,425
2019-05-12T09:33:00.840Z,435
2019-05-12T09:34:25.817Z,435
2019-05-12T09:35:46.273Z,445
2019-05-12T09:37:08.863Z,475
2019-05-12T09:38:33.118Z,630
2019-05-12T09:39:58.435Z,720
2019-05-12T09:41:13.911Z,710
2019-05-12T09:42:35.887Z,755
2019-05-12T09:43:59.959Z,765
2019-05-12T09:45:18.397Z,790
2019-05-12T09:46:38.303Z,735
2019-05-12T09:47:50.810Z,685
2019-05-12T09:49:06.553Z,640
2019-05-12T09:50:28.138Z,595
2019-05-12T09:51:54.378Z,580
2019-05-12T09:53:16.682Z,575
2019-05-12T09:54:44.378Z,575
2019-05-12T09:55:58.453Z,560
2019-05-12T09:57:13.358Z,590
2019-05-12T09:58:36.212Z,610
2019-05-12T10:00:04.224Z,605
2019-05-12T10:01:16.465Z,645
2019-05-12T10:02:30.756Z,770
2019-05-12T10:03:50.620Z,775
2019-05-12T10:05:08.528Z,705
2019-05-12T10:06:27.052Z,715
2019-05-12T10:07:38.771Z,720
2019-05-12T10:08:50.499Z,745
2019-05-12T10:10:08.278Z,765
2019-05-12T10:11:26.183Z,780
2019-05-12T10:12:55.980Z,775
2019-05-12T10:14:16.225Z,815
2019-05-12T10:15:35.669Z,840
2019-05-12T10:16:55.123Z,610
2019-05-12T10:18:18.986Z,895
2019-05-12T10:19:30.780Z,900
2019-05-12T10:20:48.951Z,905
2019-05-12T10:22:07.460Z,915
2019-05-12T10:23:34.023Z,935
2019-05-12T10:25:06.237Z,970
2019-05-12T10:26:22.054Z,1015
2019-05-12T10:27:44.056Z,1050
2019-05-12T10:29:24.345Z,1005
2019-05-12T10:30:36.705Z,1055
2019-05-12T10:31:53.567Z,1090
2019-05-12T10:33:06.063Z,1135
2019-05-12T10:34:16.462Z,1105
2019-05-12T10:35:34.948Z,1155
2019-05-12T10:36:56.332Z,1160
2019-05-12T10:38:18.390Z,1170
2019-05-12T10:39:29.292Z,1170
2019-05-12T10:40:41.064Z,1230
2019-05-12T10:41:54.487Z,1220
2019-05-12T10:43:07.177Z,1215
2019-05-12T10:44:18.742Z,1175
2019-05-12T10:45:30.776Z,1155
2019-05-12T10:46:42.356Z,1235
2019-05-12T10:47:52.339Z,1290
2019-05-12T10:49:03.907Z,1275
2019-05-12T10:50:14.341Z,1260
2019-05-12T10:51:25.998Z,1375
2019-05-12T10:52:46.226Z,1370
2019-05-12T10:54:18.155Z,1340
2019-05-12T10:55:28.498Z,1360
2019-05-12T10:56:39.729Z,1275
2019-05-12T10:58:06.790Z,1370
2019-05-12T10:59:33.294Z,1300
2019-05-12T11:00:44.315Z,1210
2019-05-12T11:01:58.902Z,1230
2019-05-12T11:03:20.316Z,1320
2019-05-12T11:04:48.822Z,1210
2019-05-12T11:06:14.854Z,1365
2019-05-12T11:07:30.736Z,1360
2019-05-12T11:08:54.097Z,1405
2019-05-12T11:10:23.301Z,1265
2019-05-12T11:11:47.049Z,1365
2019-05-12T11:13:05.692Z,1305
2019-05-12T11:14:26.179Z,1175
2019-05-12T11:15:45.763Z,1145
2019-05-12T11:17:01.997Z,1390
2019-05-12T11:18:11.957Z,1415
2019-05-12T11:19:23.353Z,1485
2019-05-12T11:20:36.904Z,1530
2019-05-12T11:21:48.868Z,1540
2019-05-12T11:23:03.380Z,1645
2019-05-12T11:24:13.882Z,1615
2019-05-12T11:25:24.595Z,1555
2019-05-12T11:26:34.282Z,1685
2019-05-12T11:27:46.198Z,1605
2019-05-12T11:28:58.066Z,1545
2019-05-12T11:30:09.116Z,1615
2019-05-12T11:31:20.790Z,1680
2019-05-12T11:32:41.174Z,1685
2019-05-12T11:33:54.080Z,1815
2019-05-12T11:35:06.409Z,1770
2019-05-12T11:36:18.382Z,1910
2019-05-12T11:37:33.684Z,1805
2019-05-12T11:38:44.335Z,1790
2019-05-12T11:39:58.133Z,1925
2019-05-12T11:41:15.953Z,1950
2019-05-12T11:42:33.427Z,1970
2019-05-12T11:43:43.601Z,1955
2019-05-12T11:44:53.638Z,1770
2019-05-12T11:46:03.089Z,1855
2019-05-12T11:47:25.985Z,1965
2019-05-12T11:48:40.222Z,1980
2019-05-12T11:49:53.565Z,2015
2019-05-12T11:51:06.247Z,1815
2019-05-12T11:52:28.551Z,2010
2019-05-12T11:53:44.357Z,2025
2019-05-12T11:55:00.733Z,2080
2019-05-12T11:56:16.334Z,2045
2019-05-12T11:57:36.572Z,2000
2019-05-12T11:58:59.016Z,2050
2019-05-12T12:00:13.706Z,845
2019-05-12T12:01:24.245Z,2005
2019-05-12T12:02:39.032Z,2110
2019-05-12T12:03:50.921Z,2180
2019-05-12T12:05:01.583Z,2145
2019-05-12T12:06:13.424Z,2160
2019-05-12T12:07:23.879Z,2060
2019-05-12T12:08:46.536Z,2060
2019-05-12T12:10:06.132Z,2230
2019-05-12T12:11:34.210Z,2175
2019-05-12T12:12:56.416Z,2195
2019-05-12T12:14:16.749Z,2195
2019-05-12T12:15:36.985Z,2225
2019-05-12T12:16:59.518Z,2170
2019-05-12T12:18:23.481Z,2245
2019-05-12T12:19:54.250Z,2325
2019-05-12T12:21:16.669Z,2155
2019-05-12T12:22:36.362Z,1970
2019-05-12T12:23:58.301Z,2260
2019-05-12T12:25:23.357Z,2265
2019-05-12T12:26:44.469Z,2425
2019-05-12T12:27:56.168Z,2665
2019-05-12T12:29:08.171Z,2310
2019-05-12T12:30:30.485Z,2300
2019-05-12T12:31:48.171Z,2280
2019-05-12T12:33:09.011Z,2460
2019-05-12T12:34:35.620Z,2330
2019-05-12T12:35:50.344Z,2350
2019-05-12T12:37:03.246Z,2250
2019-05-12T12:38:16.445Z,2255
2019-05-12T12:39:28.548Z,2320
2019-05-12T12:40:38.647Z,2450
2019-05-12T12:42:09.215Z,2430
2019-05-12T12:43:20.476Z,2385
2019-05-12T12:44:33.901Z,2285
2019-05-12T12:45:50.471Z,2445
2019-05-12T12:47:09.131Z,1495
2019-05-12T12:48:30.887Z,2025
2019-05-12T12:49:52.358Z,2320
2019-05-12T12:51:04.095Z,2190
2019-05-12T12:52:16.171Z,2295
2019-05-12T12:53:30.086Z,2040
2019-05-12T12:54:40.463Z,2235
2019-05-12T12:55:58.440Z,2310
2019-05-12T12:57:18.962Z,1815
2019-05-12T12:58:39.250Z,2210
2019-05-12T13:00:00.109Z,2295
2019-05-12T13:01:28.406Z,2255
2019-05-12T13:02:50.267Z,1895
2019-05-12T13:04:07.511Z,2035
2019-05-12T13:05:18.815Z,2095
2019-05-12T13:06:30.952Z,2315
2019-05-12T13:07:43.932Z,2445
2019-05-12T13:08:56.414Z,2485
2019-05-12T13:10:19.424Z,2475
2019-05-12T13:11:44.419Z,2660
2019-05-12T13:13:06.743Z,2505
2019-05-12T13:14:18.389Z,2485
2019-05-12T13:15:30.617Z,2545
2019-05-12T13:16:43.647Z,2395
2019-05-12T13:17:54.151Z,2455
2019-05-12T13:19:19.615Z,2550
2019-05-12T13:20:31.468Z,2770
2019-05-12T13:21:53.157Z,2755
2019-05-12T13:23:04.134Z,2600
2019-05-12T13:24:13.963Z,2620
2019-05-12T13:25:24.167Z,2590
2019-05-12T13:26:33.877Z,2580
2019-05-12T13:27:47.099Z,2675
2019-05-12T13:29:04.000Z,2625
2019-05-12T13:30:41.951Z,2775
2019-05-12T13:31:58.598Z,2645
2019-05-12T13:33:19.208Z,2655
2019-05-12T13:34:39.382Z,2585
2019-05-12T13:35:58.476Z,2620
2019-05-12T13:37:23.162Z,2480
2019-05-12T13:38:44.258Z,2410
2019-05-12T13:40:07.183Z,2695
2019-05-12T13:41:25.329Z,2640
2019-05-12T13:42:43.738Z,2575
2019-05-12T13:44:06.389Z,2670
2019-05-12T13:45:20.819Z,2600
2019-05-12T13:46:34.438Z,2040
2019-05-12T13:47:52.930Z,2740
2019-05-12T13:49:08.023Z,2775
2019-05-12T13:50:33.332Z,2570
2019-05-12T13:51:50.832Z,2435
2019-05-12T13:53:13.824Z,2385
2019-05-12T13:54:34.049Z,2255
2019-05-12T13:55:56.759Z,2415
2019-05-12T13:57:18.462Z,2300
2019-05-12T13:58:42.921Z,2175
2019-05-12T14:00:14.005Z,2270
2019-05-12T14:01:45.483Z,2130
2019-05-12T14:03:16.504Z,855
2019-05-12T14:04:33.629Z,725
2019-05-12T14:05:57.695Z,915
2019-05-12T14:07:15.587Z,2080
2019-05-12T14:08:28.631Z,2615
2019-05-12T14:09:39.143Z,2580
2019-05-12T14:11:06.825Z,1035
2019-05-12T14:12:18.389Z,2505
2019-05-12T14:13:29.102Z,2420
2019-05-12T14:14:43.428Z,2375
2019-05-12T14:15:55.978Z,2145
2019-05-12T14:17:11.166Z,2175
2019-05-12T14:18:28.056Z,1370
2019-05-12T14:19:43.713Z,2200
2019-05-12T14:21:04.157Z,2335
2019-05-12T14:22:28.471Z,2350
2019-05-12T14:23:39.136Z,2420
2019-05-12T14:24:56.482Z,2480
2019-05-12T14:26:13.611Z,2555
2019-05-12T14:27:33.151Z,2515
2019-05-12T14:28:53.373Z,2435
2019-05-12T14:30:16.990Z,2165
2019-05-12T14:32:05.337Z,2375
2019-05-12T14:33:17.899Z,2670
2019-05-12T14:34:30.843Z,2830
2019-05-12T14:35:53.689Z,2850
2019-05-12T14:37:20.045Z,2685
2019-05-12T14:38:38.646Z,2725
2019-05-12T14:39:56.175Z,2465
2019-05-12T14:41:19.326Z,2440
2019-05-12T14:42:46.444Z,2515
2019-05-12T14:44:08.030Z,2640
2019-05-12T14:45:25.473Z,2655
2019-05-12T14:46:53.446Z,2620
2019-05-12T14:48:16.179Z,2550
2019-05-12T14:49:38.059Z,2590
2019-05-12T14:50:48.727Z,2470
2019-05-12T14:52:03.182Z,2515
2019-05-12T14:53:14.404Z,2685
2019-05-12T14:54:26.371Z,2670
2019-05-12T14:55:38.550Z,2295
2019-05-12T14:57:03.494Z,570
2019-05-12T14:58:28.414Z,550
2019-05-12T14:59:46.660Z,760
2019-05-12T15:01:06.346Z,1865
2019-05-12T15:02:25.339Z,2510
2019-05-12T15:03:42.172Z,2515
2019-05-12T15:04:54.235Z,2475
2019-05-12T15:06:07.688Z,2525
2019-05-12T15:07:20.161Z,2490
2019-05-12T15:08:46.066Z,2400
2019-05-12T15:10:14.173Z,1645
2019-05-12T15:11:26.180Z,2110
2019-05-12T15:12:38.098Z,2395
2019-05-12T15:13:48.526Z,2060
2019-05-12T15:14:59.166Z,2455
2019-05-12T15:16:09.757Z,2425
2019-05-12T15:17:33.598Z,2370
2019-05-12T15:18:54.095Z,2295
2019-05-12T15:20:13.822Z,2315
2019-05-12T15:21:36.450Z,2455
2019-05-12T15:22:59.821Z,2420
2019-05-12T15:24:20.004Z,2365
2019-05-12T15:25:38.226Z,2360
2019-05-12T15:26:57.212Z,2345
2019-05-12T15:28:11.115Z,2315
2019-05-12T15:29:30.705Z,2305
2019-05-12T15:30:40.955Z,2315
2019-05-12T15:32:06.365Z,2335
2019-05-12T15:33:18.637Z,2395
2019-05-12T15:34:30.754Z,2310
2019-05-12T15:35:43.833Z,2220
2019-05-12T15:37:09.017Z,2215
2019-05-12T15:38:26.350Z,2220
2019-05-12T15:39:38.435Z,2230
2019-05-12T15:40:50.532Z,2350
2019-05-12T15:42:08.234Z,2300
2019-05-12T15:43:20.926Z,2325
2019-05-12T15:44:47.350Z,2285
2019-05-12T15:46:04.987Z,2200
2019-05-12T15:47:14.758Z,2190
2019-05-12T15:48:34.186Z,2205
2019-05-12T15:49:46.603Z,2050
2019-05-12T15:51:05.076Z,2095
2019-05-12T15:52:18.922Z,2165
2019-05-12T15:53:36.128Z,2120
2019-05-12T15:54:58.831Z,2135
2019-05-12T15:56:30.403Z,610
2019-05-12T15:57:43.942Z,1930
2019-05-12T15:59:00.791Z,2000
2019-05-12T16:00:13.705Z,2000
2019-05-12T16:01:29.073Z,2055
2019-05-12T16:02:41.142Z,1990
2019-05-12T16:03:54.299Z,1935
2019-05-12T16:05:06.618Z,1960
2019-05-12T16:06:21.882Z,2085
2019-05-12T16:07:47.665Z,2005
2019-05-12T16:08:58.258Z,2055
2019-05-12T16:10:11.354Z,1955
2019-05-12T16:11:24.392Z,1925
2019-05-12T16:12:39.095Z,1960
2019-05-12T16:14:06.255Z,1870
2019-05-12T16:15:24.643Z,1880
2019-05-12T16:16:49.400Z,1805
2019-05-12T16:18:11.040Z,1870
2019-05-12T16:19:23.413Z,1915
2019-05-12T16:20:35.791Z,1870
2019-05-12T16:21:47.950Z,1840
2019-05-12T16:22:58.063Z,1840
2019-05-12T16:24:20.380Z,1815
2019-05-12T16:25:41.211Z,1870
2019-05-12T16:27:00.540Z,985
2019-05-12T16:28:28.318Z,1745
2019-05-12T16:29:45.226Z,1720
2019-05-12T16:31:04.870Z,1770
2019-05-12T16:32:47.399Z,1235
2019-05-12T16:34:13.818Z,1650
2019-05-12T16:35:37.037Z,1440
2019-05-12T16:36:59.603Z,1520
2019-05-12T16:38:23.579Z,1620
2019-05-12T16:39:49.633Z,1570
2019-05-12T16:41:03.512Z,1455
2019-05-12T16:42:18.705Z,1375
2019-05-12T16:43:34.867Z,1540
2019-05-12T16:44:46.449Z,1575
2019-05-12T16:45:58.574Z,1560
2019-05-12T16:47:08.892Z,410
2019-05-12T16:48:47.800Z,1460
2019-05-12T16:50:06.077Z,1355
2019-05-12T16:51:26.313Z,605
2019-05-12T16:52:49.970Z,1255
2019-05-12T16:54:03.447Z,1390
2019-05-12T16:55:13.347Z,1355
2019-05-12T16:56:33.870Z,1160
2019-05-12T16:57:58.562Z,1130
2019-05-12T16:59:24.692Z,1270
2019-05-12T17:00:49.335Z,1290
2019-05-12T17:02:10.513Z,1090
2019-05-12T17:03:23.662Z,1115
2019-05-12T17:04:35.747Z,1300
2019-05-12T17:05:49.927Z,1325
2019-05-12T17:07:09.623Z,1235
2019-05-12T17:08:26.562Z,1255
2019-05-12T17:09:38.038Z,1005
2019-05-12T17:11:29.859Z,1270
2019-05-12T17:12:48.350Z,1200
2019-05-12T17:14:11.911Z,1145
2019-05-12T17:15:26.030Z,1130
2019-05-12T17:16:51.577Z,1160
2019-05-12T17:18:13.551Z,1100
2019-05-12T17:19:26.159Z,1130
2019-05-12T17:20:40.830Z,1065
2019-05-12T17:22:00.063Z,1110
2019-05-12T17:23:10.764Z,1070
2019-05-12T17:24:23.872Z,1000
2019-05-12T17:25:34.353Z,975
2019-05-12T17:26:46.468Z,955
2019-05-12T17:28:03.528Z,910
2019-05-12T17:29:15.983Z,945
2019-05-12T17:30:26.359Z,935
2019-05-12T17:31:38.520Z,905
2019-05-12T17:33:13.327Z,910
2019-05-12T17:34:40.175Z,875
2019-05-12T17:35:53.406Z,860
2019-05-12T17:37:08.831Z,850
2019-05-12T17:38:37.069Z,810
2019-05-12T17:39:50.666Z,800
2019-05-12T17:41:10.585Z,780
2019-05-12T17:42:33.362Z,770
2019-05-12T17:44:06.747Z,750